sensor_id;sensor_type;location;lat;lon;timestamp;P1;durP1;ratioP1;P2;durP2;ratioP2
15799;SDS011;8002;51.196;7.010;2023-11-19T00:01:55;3.13;;;2.93;;
15799;SDS011;8002;51.196;7.010;2023-11-19T00:04:24;3.43;;;3.10;;
15799;SDS011;8002;51.196;7.010;2023-11-19T00:06:50;3.47;;;2.83;;
15799;SDS011;8002;51.196;7.010;2023-11-19T00:09:16;2.97;;;2.67;;
15799;SDS011;8002;51.196;7.010;2023-11-19T00:11:43;3.23;;;2.77;;
15799;SDS011;8002;51.196;7.010;2023-11-19T00:14:09;2.50;;;2.30;;
15799;SDS011;8002;51.196;7.010;2023-11-19T00:16:36;3.10;;;2.43;;
15799;SDS011;8002;51.196;7.010;2023-11-19T00:19:02;4.37;;;2.20;;
15799;SDS011;8002;51.196;7.010;2023-11-19T00:21:30;3.33;;;2.60;;
15799;SDS011;8002;51.196;7.010;2023-11-19T00:23:58;3.57;;;2.50;;
15799;SDS011;8002;51.196;7.010;2023-11-19T00:26:24;2.10;;;2.00;;
15799;SDS011;8002;51.196;7.010;2023-11-19T00:28:51;2.77;;;2.20;;
15799;SDS011;8002;51.196;7.010;2023-11-19T00:31:18;3.10;;;2.80;;
15799;SDS011;8002;51.196;7.010;2023-11-19T00:33:44;4.97;;;2.30;;
15799;SDS011;8002;51.196;7.010;2023-11-19T00:36:11;2.57;;;2.37;;
15799;SDS011;8002;51.196;7.010;2023-11-19T00:38:39;3.03;;;2.20;;
15799;SDS011;8002;51.196;7.010;2023-11-19T00:41:05;2.70;;;2.50;;
15799;SDS011;8002;51.196;7.010;2023-11-19T00:43:32;2.87;;;2.60;;
15799;SDS011;8002;51.196;7.010;2023-11-19T00:45:58;2.57;;;2.37;;
15799;SDS011;8002;51.196;7.010;2023-11-19T00:48:25;2.53;;;2.33;;
15799;SDS011;8002;51.196;7.010;2023-11-19T00:50:53;5.83;;;2.90;;
15799;SDS011;8002;51.196;7.010;2023-11-19T00:53:19;3.07;;;2.87;;
15799;SDS011;8002;51.196;7.010;2023-11-19T00:55:47;3.30;;;3.00;;
15799;SDS011;8002;51.196;7.010;2023-11-19T00:58:13;2.90;;;2.67;;
15799;SDS011;8002;51.196;7.010;2023-11-19T01:00:39;3.20;;;2.90;;
15799;SDS011;8002;51.196;7.010;2023-11-19T01:03:06;4.57;;;3.17;;
15799;SDS011;8002;51.196;7.010;2023-11-19T01:05:32;3.93;;;2.60;;
15799;SDS011;8002;51.196;7.010;2023-11-19T01:07:59;3.07;;;2.77;;
15799;SDS011;8002;51.196;7.010;2023-11-19T01:10:25;3.23;;;2.77;;
15799;SDS011;8002;51.196;7.010;2023-11-19T01:12:53;2.73;;;2.53;;
15799;SDS011;8002;51.196;7.010;2023-11-19T01:15:19;3.53;;;2.70;;
15799;SDS011;8002;51.196;7.010;2023-11-19T01:17:46;3.63;;;3.33;;
15799;SDS011;8002;51.196;7.010;2023-11-19T01:20:12;5.23;;;2.90;;
15799;SDS011;8002;51.196;7.010;2023-11-19T01:22:39;2.80;;;2.57;;
15799;SDS011;8002;51.196;7.010;2023-11-19T01:25:06;3.37;;;3.07;;
15799;SDS011;8002;51.196;7.010;2023-11-19T01:27:32;4.23;;;3.27;;
15799;SDS011;8002;51.196;7.010;2023-11-19T01:30:01;2.90;;;2.70;;
15799;SDS011;8002;51.196;7.010;2023-11-19T01:32:31;3.67;;;3.10;;
15799;SDS011;8002;51.196;7.010;2023-11-19T01:34:57;3.33;;;3.03;;
15799;SDS011;8002;51.196;7.010;2023-11-19T01:37:23;4.30;;;2.80;;
15799;SDS011;8002;51.196;7.010;2023-11-19T01:39:50;4.20;;;2.57;;
15799;SDS011;8002;51.196;7.010;2023-11-19T01:42:16;5.30;;;2.80;;
15799;SDS011;8002;51.196;7.010;2023-11-19T01:44:41;3.20;;;2.70;;
15799;SDS011;8002;51.196;7.010;2023-11-19T01:47:09;3.20;;;2.37;;
15799;SDS011;8002;51.196;7.010;2023-11-19T01:49:36;2.50;;;2.30;;
15799;SDS011;8002;51.196;7.010;2023-11-19T01:52:02;6.30;;;2.57;;
15799;SDS011;8002;51.196;7.010;2023-11-19T01:54:28;2.83;;;2.53;;
15799;SDS011;8002;51.196;7.010;2023-11-19T01:56:55;2.43;;;2.13;;
15799;SDS011;8002;51.196;7.010;2023-11-19T01:59:23;3.43;;;2.20;;
15799;SDS011;8002;51.196;7.010;2023-11-19T02:01:51;3.07;;;2.23;;
15799;SDS011;8002;51.196;7.010;2023-11-19T02:04:19;3.37;;;2.20;;
15799;SDS011;8002;51.196;7.010;2023-11-19T02:06:45;2.20;;;2.00;;
15799;SDS011;8002;51.196;7.010;2023-11-19T02:09:14;3.90;;;1.63;;
15799;SDS011;8002;51.196;7.010;2023-11-19T02:11:44;2.73;;;2.10;;
15799;SDS011;8002;51.196;7.010;2023-11-19T02:14:13;6.50;;;2.37;;
15799;SDS011;8002;51.196;7.010;2023-11-19T02:16:40;3.20;;;1.77;;
15799;SDS011;8002;51.196;7.010;2023-11-19T02:19:06;4.07;;;1.90;;
15799;SDS011;8002;51.196;7.010;2023-11-19T02:21:35;3.60;;;1.97;;
15799;SDS011;8002;51.196;7.010;2023-11-19T02:24:02;4.00;;;2.20;;
15799;SDS011;8002;51.196;7.010;2023-11-19T02:26:32;3.10;;;1.60;;
15799;SDS011;8002;51.196;7.010;2023-11-19T02:29:02;4.30;;;1.97;;
15799;SDS011;8002;51.196;7.010;2023-11-19T02:31:29;6.33;;;2.40;;
15799;SDS011;8002;51.196;7.010;2023-11-19T02:33:55;5.80;;;2.17;;
15799;SDS011;8002;51.196;7.010;2023-11-19T02:36:21;5.77;;;2.27;;
15799;SDS011;8002;51.196;7.010;2023-11-19T02:38:48;4.70;;;2.20;;
15799;SDS011;8002;51.196;7.010;2023-11-19T02:41:14;5.40;;;2.50;;
15799;SDS011;8002;51.196;7.010;2023-11-19T02:43:41;4.90;;;2.17;;
15799;SDS011;8002;51.196;7.010;2023-11-19T02:46:08;6.43;;;2.37;;
15799;SDS011;8002;51.196;7.010;2023-11-19T02:48:36;6.37;;;2.60;;
15799;SDS011;8002;51.196;7.010;2023-11-19T02:51:02;8.10;;;3.07;;
15799;SDS011;8002;51.196;7.010;2023-11-19T02:53:29;7.90;;;2.50;;
15799;SDS011;8002;51.196;7.010;2023-11-19T02:55:56;6.90;;;2.90;;
15799;SDS011;8002;51.196;7.010;2023-11-19T02:58:26;7.43;;;3.00;;
15799;SDS011;8002;51.196;7.010;2023-11-19T03:00:53;6.27;;;2.80;;
15799;SDS011;8002;51.196;7.010;2023-11-19T03:03:23;7.13;;;2.87;;
15799;SDS011;8002;51.196;7.010;2023-11-19T03:05:54;5.43;;;3.30;;
15799;SDS011;8002;51.196;7.010;2023-11-19T03:08:20;8.03;;;3.47;;
15799;SDS011;8002;51.196;7.010;2023-11-19T03:10:47;10.17;;;3.33;;
15799;SDS011;8002;51.196;7.010;2023-11-19T03:13:14;6.80;;;3.50;;
15799;SDS011;8002;51.196;7.010;2023-11-19T03:15:40;6.53;;;3.47;;
15799;SDS011;8002;51.196;7.010;2023-11-19T03:18:07;9.80;;;3.20;;
15799;SDS011;8002;51.196;7.010;2023-11-19T03:20:34;10.60;;;3.50;;
15799;SDS011;8002;51.196;7.010;2023-11-19T03:23:00;7.73;;;3.37;;
15799;SDS011;8002;51.196;7.010;2023-11-19T03:25:27;8.23;;;3.40;;
15799;SDS011;8002;51.196;7.010;2023-11-19T03:27:58;10.93;;;3.10;;
15799;SDS011;8002;51.196;7.010;2023-11-19T03:30:25;9.23;;;3.30;;
15799;SDS011;8002;51.196;7.010;2023-11-19T03:32:51;9.63;;;3.47;;
15799;SDS011;8002;51.196;7.010;2023-11-19T03:35:17;13.20;;;3.83;;
15799;SDS011;8002;51.196;7.010;2023-11-19T03:37:45;10.80;;;3.80;;
15799;SDS011;8002;51.196;7.010;2023-11-19T03:40:11;7.17;;;2.83;;
15799;SDS011;8002;51.196;7.010;2023-11-19T03:42:38;11.47;;;3.97;;
15799;SDS011;8002;51.196;7.010;2023-11-19T03:45:05;12.13;;;3.50;;
15799;SDS011;8002;51.196;7.010;2023-11-19T03:47:33;11.53;;;3.20;;
15799;SDS011;8002;51.196;7.010;2023-11-19T03:49:59;13.43;;;3.70;;
15799;SDS011;8002;51.196;7.010;2023-11-19T03:52:26;11.87;;;3.27;;
15799;SDS011;8002;51.196;7.010;2023-11-19T03:54:54;16.90;;;4.20;;
15799;SDS011;8002;51.196;7.010;2023-11-19T03:57:21;11.43;;;3.77;;
15799;SDS011;8002;51.196;7.010;2023-11-19T03:59:48;11.53;;;3.57;;
15799;SDS011;8002;51.196;7.010;2023-11-19T04:02:14;9.33;;;2.87;;
15799;SDS011;8002;51.196;7.010;2023-11-19T04:04:41;5.83;;;2.80;;
15799;SDS011;8002;51.196;7.010;2023-11-19T04:07:07;11.60;;;3.27;;
15799;SDS011;8002;51.196;7.010;2023-11-19T04:09:34;7.03;;;3.00;;
15799;SDS011;8002;51.196;7.010;2023-11-19T04:12:04;13.37;;;4.00;;
15799;SDS011;8002;51.196;7.010;2023-11-19T04:14:30;14.37;;;3.17;;
15799;SDS011;8002;51.196;7.010;2023-11-19T04:16:57;14.70;;;3.40;;
15799;SDS011;8002;51.196;7.010;2023-11-19T04:19:23;12.03;;;3.80;;
15799;SDS011;8002;51.196;7.010;2023-11-19T04:21:49;21.00;;;3.73;;
15799;SDS011;8002;51.196;7.010;2023-11-19T04:24:17;12.53;;;3.77;;
15799;SDS011;8002;51.196;7.010;2023-11-19T04:26:44;12.23;;;4.03;;
15799;SDS011;8002;51.196;7.010;2023-11-19T04:29:13;12.10;;;3.50;;
15799;SDS011;8002;51.196;7.010;2023-11-19T04:31:39;12.50;;;3.80;;
15799;SDS011;8002;51.196;7.010;2023-11-19T04:34:06;10.00;;;3.73;;
15799;SDS011;8002;51.196;7.010;2023-11-19T04:36:32;11.90;;;3.30;;
15799;SDS011;8002;51.196;7.010;2023-11-19T04:38:59;14.43;;;3.87;;
15799;SDS011;8002;51.196;7.010;2023-11-19T04:41:25;16.47;;;4.03;;
15799;SDS011;8002;51.196;7.010;2023-11-19T04:43:52;11.40;;;3.57;;
15799;SDS011;8002;51.196;7.010;2023-11-19T04:46:20;18.87;;;3.70;;
15799;SDS011;8002;51.196;7.010;2023-11-19T04:48:46;12.20;;;3.70;;
15799;SDS011;8002;51.196;7.010;2023-11-19T04:51:13;16.20;;;3.73;;
15799;SDS011;8002;51.196;7.010;2023-11-19T04:53:39;16.13;;;4.03;;
15799;SDS011;8002;51.196;7.010;2023-11-19T04:56:09;14.37;;;3.77;;
15799;SDS011;8002;51.196;7.010;2023-11-19T04:58:36;14.53;;;4.23;;
15799;SDS011;8002;51.196;7.010;2023-11-19T05:01:03;8.47;;;3.33;;
15799;SDS011;8002;51.196;7.010;2023-11-19T05:03:31;7.10;;;3.00;;
15799;SDS011;8002;51.196;7.010;2023-11-19T05:05:57;17.07;;;4.30;;
15799;SDS011;8002;51.196;7.010;2023-11-19T05:08:24;18.63;;;4.60;;
15799;SDS011;8002;51.196;7.010;2023-11-19T05:10:50;11.43;;;3.53;;
15799;SDS011;8002;51.196;7.010;2023-11-19T05:13:17;17.87;;;4.63;;
15799;SDS011;8002;51.196;7.010;2023-11-19T05:15:43;15.10;;;4.17;;
15799;SDS011;8002;51.196;7.010;2023-11-19T05:18:09;16.73;;;3.97;;
15799;SDS011;8002;51.196;7.010;2023-11-19T05:20:37;16.47;;;4.40;;
15799;SDS011;8002;51.196;7.010;2023-11-19T05:23:03;12.27;;;3.90;;
15799;SDS011;8002;51.196;7.010;2023-11-19T05:25:30;17.17;;;3.93;;
15799;SDS011;8002;51.196;7.010;2023-11-19T05:27:56;18.17;;;4.07;;
15799;SDS011;8002;51.196;7.010;2023-11-19T05:30:22;16.60;;;4.30;;
15799;SDS011;8002;51.196;7.010;2023-11-19T05:32:49;18.70;;;3.93;;
15799;SDS011;8002;51.196;7.010;2023-11-19T05:35:15;18.07;;;4.43;;
15799;SDS011;8002;51.196;7.010;2023-11-19T05:37:43;15.90;;;4.07;;
15799;SDS011;8002;51.196;7.010;2023-11-19T05:40:09;14.70;;;4.40;;
15799;SDS011;8002;51.196;7.010;2023-11-19T05:42:39;13.43;;;3.70;;
15799;SDS011;8002;51.196;7.010;2023-11-19T05:45:06;17.50;;;4.80;;
15799;SDS011;8002;51.196;7.010;2023-11-19T05:47:33;11.90;;;3.47;;
15799;SDS011;8002;51.196;7.010;2023-11-19T05:50:00;14.47;;;4.27;;
15799;SDS011;8002;51.196;7.010;2023-11-19T05:52:26;18.43;;;4.30;;
15799;SDS011;8002;51.196;7.010;2023-11-19T05:54:54;15.17;;;4.33;;
15799;SDS011;8002;51.196;7.010;2023-11-19T05:57:21;19.87;;;4.97;;
15799;SDS011;8002;51.196;7.010;2023-11-19T05:59:50;17.10;;;4.40;;
15799;SDS011;8002;51.196;7.010;2023-11-19T06:02:18;14.27;;;4.23;;
15799;SDS011;8002;51.196;7.010;2023-11-19T06:04:45;16.27;;;4.23;;
15799;SDS011;8002;51.196;7.010;2023-11-19T06:07:13;16.57;;;4.33;;
15799;SDS011;8002;51.196;7.010;2023-11-19T06:09:40;17.80;;;4.70;;
15799;SDS011;8002;51.196;7.010;2023-11-19T06:12:08;17.37;;;4.23;;
15799;SDS011;8002;51.196;7.010;2023-11-19T06:14:35;15.70;;;4.10;;
15799;SDS011;8002;51.196;7.010;2023-11-19T06:17:01;15.77;;;4.50;;
15799;SDS011;8002;51.196;7.010;2023-11-19T06:19:29;15.70;;;4.87;;
15799;SDS011;8002;51.196;7.010;2023-11-19T06:21:56;18.20;;;4.40;;
15799;SDS011;8002;51.196;7.010;2023-11-19T06:24:22;13.40;;;4.33;;
15799;SDS011;8002;51.196;7.010;2023-11-19T06:26:48;21.57;;;4.67;;
15799;SDS011;8002;51.196;7.010;2023-11-19T06:29:16;15.87;;;5.33;;
15799;SDS011;8002;51.196;7.010;2023-11-19T06:31:44;23.33;;;4.80;;
15799;SDS011;8002;51.196;7.010;2023-11-19T06:34:11;21.00;;;4.43;;
15799;SDS011;8002;51.196;7.010;2023-11-19T06:36:38;15.80;;;4.57;;
15799;SDS011;8002;51.196;7.010;2023-11-19T06:39:04;20.57;;;4.57;;
15799;SDS011;8002;51.196;7.010;2023-11-19T06:41:31;14.53;;;4.10;;
15799;SDS011;8002;51.196;7.010;2023-11-19T06:43:57;13.60;;;4.20;;
15799;SDS011;8002;51.196;7.010;2023-11-19T06:46:26;19.67;;;4.90;;
15799;SDS011;8002;51.196;7.010;2023-11-19T06:48:52;22.67;;;4.80;;
15799;SDS011;8002;51.196;7.010;2023-11-19T06:51:18;18.47;;;4.67;;
15799;SDS011;8002;51.196;7.010;2023-11-19T06:53:45;14.87;;;4.23;;
15799;SDS011;8002;51.196;7.010;2023-11-19T07:01:26;14.80;;;4.23;;
15799;SDS011;8002;51.196;7.010;2023-11-19T07:03:52;24.20;;;4.97;;
15799;SDS011;8002;51.196;7.010;2023-11-19T07:06:18;19.97;;;4.07;;
15799;SDS011;8002;51.196;7.010;2023-11-19T07:08:45;15.17;;;4.47;;
15799;SDS011;8002;51.196;7.010;2023-11-19T07:11:11;18.30;;;3.93;;
15799;SDS011;8002;51.196;7.010;2023-11-19T07:13:40;22.87;;;5.90;;
15799;SDS011;8002;51.196;7.010;2023-11-19T07:16:07;18.93;;;5.20;;
15799;SDS011;8002;51.196;7.010;2023-11-19T07:18:36;21.63;;;4.50;;
15799;SDS011;8002;51.196;7.010;2023-11-19T07:21:03;20.67;;;4.33;;
15799;SDS011;8002;51.196;7.010;2023-11-19T07:23:30;16.03;;;3.57;;
15799;SDS011;8002;51.196;7.010;2023-11-19T07:25:58;15.07;;;4.60;;
15799;SDS011;8002;51.196;7.010;2023-11-19T07:28:24;20.07;;;4.30;;
15799;SDS011;8002;51.196;7.010;2023-11-19T07:30:50;25.93;;;4.63;;
15799;SDS011;8002;51.196;7.010;2023-11-19T07:33:17;16.27;;;3.93;;
15799;SDS011;8002;51.196;7.010;2023-11-19T07:35:44;18.70;;;4.07;;
15799;SDS011;8002;51.196;7.010;2023-11-19T07:38:11;22.10;;;5.10;;
15799;SDS011;8002;51.196;7.010;2023-11-19T07:40:37;22.90;;;5.10;;
15799;SDS011;8002;51.196;7.010;2023-11-19T07:43:03;23.43;;;4.83;;
15799;SDS011;8002;51.196;7.010;2023-11-19T07:45:30;21.10;;;5.00;;
15799;SDS011;8002;51.196;7.010;2023-11-19T07:47:57;16.17;;;4.23;;
15799;SDS011;8002;51.196;7.010;2023-11-19T07:50:23;25.63;;;5.60;;
15799;SDS011;8002;51.196;7.010;2023-11-19T07:52:51;20.90;;;4.87;;
15799;SDS011;8002;51.196;7.010;2023-11-19T07:55:18;25.17;;;4.97;;
15799;SDS011;8002;51.196;7.010;2023-11-19T07:57:44;18.67;;;6.10;;
15799;SDS011;8002;51.196;7.010;2023-11-19T08:00:11;25.90;;;5.57;;
15799;SDS011;8002;51.196;7.010;2023-11-19T08:02:38;18.33;;;4.57;;
15799;SDS011;8002;51.196;7.010;2023-11-19T08:05:04;20.23;;;4.50;;
15799;SDS011;8002;51.196;7.010;2023-11-19T08:07:31;25.63;;;6.23;;
15799;SDS011;8002;51.196;7.010;2023-11-19T08:09:59;24.37;;;4.90;;
15799;SDS011;8002;51.196;7.010;2023-11-19T08:12:26;25.10;;;5.53;;
15799;SDS011;8002;51.196;7.010;2023-11-19T08:14:52;19.93;;;4.70;;
15799;SDS011;8002;51.196;7.010;2023-11-19T08:17:18;16.60;;;5.53;;
15799;SDS011;8002;51.196;7.010;2023-11-19T08:19:45;18.00;;;5.00;;
15799;SDS011;8002;51.196;7.010;2023-11-19T08:22:11;27.47;;;5.53;;
15799;SDS011;8002;51.196;7.010;2023-11-19T08:24:37;26.00;;;5.53;;
15799;SDS011;8002;51.196;7.010;2023-11-19T08:27:05;25.23;;;5.57;;
15799;SDS011;8002;51.196;7.010;2023-11-19T08:29:31;25.97;;;6.00;;
15799;SDS011;8002;51.196;7.010;2023-11-19T08:31:59;22.20;;;5.40;;
15799;SDS011;8002;51.196;7.010;2023-11-19T08:34:26;22.80;;;4.83;;
15799;SDS011;8002;51.196;7.010;2023-11-19T08:36:53;30.50;;;5.57;;
15799;SDS011;8002;51.196;7.010;2023-11-19T08:39:19;20.83;;;5.27;;
15799;SDS011;8002;51.196;7.010;2023-11-19T08:41:46;19.17;;;4.47;;
15799;SDS011;8002;51.196;7.010;2023-11-19T08:44:14;24.27;;;5.27;;
15799;SDS011;8002;51.196;7.010;2023-11-19T08:46:45;25.00;;;4.83;;
15799;SDS011;8002;51.196;7.010;2023-11-19T08:49:12;24.97;;;6.13;;
15799;SDS011;8002;51.196;7.010;2023-11-19T08:51:38;24.13;;;5.03;;
15799;SDS011;8002;51.196;7.010;2023-11-19T08:54:04;23.87;;;6.20;;
15799;SDS011;8002;51.196;7.010;2023-11-19T08:56:31;20.87;;;5.13;;
15799;SDS011;8002;51.196;7.010;2023-11-19T08:58:59;26.67;;;5.47;;
15799;SDS011;8002;51.196;7.010;2023-11-19T09:01:27;14.13;;;5.10;;
15799;SDS011;8002;51.196;7.010;2023-11-19T09:03:54;24.40;;;5.83;;
15799;SDS011;8002;51.196;7.010;2023-11-19T09:06:20;24.43;;;6.53;;
15799;SDS011;8002;51.196;7.010;2023-11-19T09:08:47;27.60;;;5.67;;
15799;SDS011;8002;51.196;7.010;2023-11-19T09:11:13;24.93;;;6.23;;
15799;SDS011;8002;51.196;7.010;2023-11-19T09:13:40;25.23;;;6.80;;
15799;SDS011;8002;51.196;7.010;2023-11-19T09:16:06;20.40;;;5.17;;
15799;SDS011;8002;51.196;7.010;2023-11-19T09:18:35;25.27;;;6.60;;
15799;SDS011;8002;51.196;7.010;2023-11-19T09:21:01;22.30;;;5.50;;
15799;SDS011;8002;51.196;7.010;2023-11-19T09:23:28;22.70;;;5.80;;
15799;SDS011;8002;51.196;7.010;2023-11-19T09:25:57;31.23;;;6.90;;
15799;SDS011;8002;51.196;7.010;2023-11-19T09:28:25;19.07;;;5.97;;
15799;SDS011;8002;51.196;7.010;2023-11-19T09:30:51;21.53;;;5.97;;
15799;SDS011;8002;51.196;7.010;2023-11-19T09:33:17;24.53;;;6.13;;
15799;SDS011;8002;51.196;7.010;2023-11-19T09:35:46;24.53;;;5.40;;
15799;SDS011;8002;51.196;7.010;2023-11-19T09:38:14;20.40;;;5.57;;
15799;SDS011;8002;51.196;7.010;2023-11-19T09:40:40;19.03;;;5.40;;
15799;SDS011;8002;51.196;7.010;2023-11-19T09:43:07;23.67;;;5.70;;
15799;SDS011;8002;51.196;7.010;2023-11-19T09:45:46;21.50;;;4.83;;
15799;SDS011;8002;51.196;7.010;2023-11-19T09:48:16;13.57;;;4.17;;
15799;SDS011;8002;51.196;7.010;2023-11-19T09:50:42;25.13;;;5.10;;
15799;SDS011;8002;51.196;7.010;2023-11-19T09:53:11;13.93;;;4.03;;
15799;SDS011;8002;51.196;7.010;2023-11-19T09:55:37;15.57;;;4.67;;
15799;SDS011;8002;51.196;7.010;2023-11-19T09:58:04;18.50;;;4.33;;
15799;SDS011;8002;51.196;7.010;2023-11-19T10:00:32;22.87;;;4.87;;
15799;SDS011;8002;51.196;7.010;2023-11-19T10:02:58;16.77;;;5.20;;
15799;SDS011;8002;51.196;7.010;2023-11-19T10:05:25;20.83;;;5.03;;
15799;SDS011;8002;51.196;7.010;2023-11-19T10:07:52;16.93;;;4.57;;
15799;SDS011;8002;51.196;7.010;2023-11-19T10:10:22;18.10;;;4.80;;
15799;SDS011;8002;51.196;7.010;2023-11-19T10:12:50;27.20;;;5.43;;
15799;SDS011;8002;51.196;7.010;2023-11-19T10:15:17;20.43;;;4.77;;
15799;SDS011;8002;51.196;7.010;2023-11-19T10:17:46;22.43;;;4.47;;
15799;SDS011;8002;51.196;7.010;2023-11-19T10:20:12;20.17;;;4.30;;
15799;SDS011;8002;51.196;7.010;2023-11-19T10:22:38;22.87;;;4.90;;
15799;SDS011;8002;51.196;7.010;2023-11-19T10:25:05;20.60;;;6.23;;
15799;SDS011;8002;51.196;7.010;2023-11-19T10:27:35;24.17;;;4.57;;
15799;SDS011;8002;51.196;7.010;2023-11-19T10:30:01;18.33;;;4.73;;
15799;SDS011;8002;51.196;7.010;2023-11-19T10:32:27;21.40;;;5.30;;
15799;SDS011;8002;51.196;7.010;2023-11-19T10:35:04;18.57;;;4.83;;
15799;SDS011;8002;51.196;7.010;2023-11-19T10:37:31;19.27;;;4.57;;
15799;SDS011;8002;51.196;7.010;2023-11-19T10:40:00;19.63;;;4.43;;
15799;SDS011;8002;51.196;7.010;2023-11-19T10:42:30;21.00;;;4.90;;
15799;SDS011;8002;51.196;7.010;2023-11-19T10:44:57;17.20;;;5.17;;
15799;SDS011;8002;51.196;7.010;2023-11-19T10:47:24;19.40;;;5.80;;
15799;SDS011;8002;51.196;7.010;2023-11-19T10:49:51;20.20;;;4.73;;
15799;SDS011;8002;51.196;7.010;2023-11-19T10:52:17;15.87;;;4.23;;
15799;SDS011;8002;51.196;7.010;2023-11-19T10:54:49;18.00;;;4.47;;
15799;SDS011;8002;51.196;7.010;2023-11-19T10:57:16;19.33;;;5.17;;
15799;SDS011;8002;51.196;7.010;2023-11-19T10:59:45;20.27;;;4.33;;
15799;SDS011;8002;51.196;7.010;2023-11-19T11:02:14;18.87;;;4.20;;
15799;SDS011;8002;51.196;7.010;2023-11-19T11:04:44;16.50;;;4.17;;
15799;SDS011;8002;51.196;7.010;2023-11-19T11:07:12;19.80;;;4.63;;
15799;SDS011;8002;51.196;7.010;2023-11-19T11:09:40;20.20;;;4.70;;
15799;SDS011;8002;51.196;7.010;2023-11-19T11:12:07;18.73;;;4.40;;
15799;SDS011;8002;51.196;7.010;2023-11-19T11:14:34;21.00;;;5.37;;
15799;SDS011;8002;51.196;7.010;2023-11-19T11:17:05;16.57;;;4.17;;
15799;SDS011;8002;51.196;7.010;2023-11-19T11:19:34;16.27;;;4.80;;
15799;SDS011;8002;51.196;7.010;2023-11-19T11:22:00;18.73;;;4.50;;
15799;SDS011;8002;51.196;7.010;2023-11-19T11:24:34;20.50;;;4.33;;
15799;SDS011;8002;51.196;7.010;2023-11-19T11:29:47;17.60;;;4.00;;
15799;SDS011;8002;51.196;7.010;2023-11-19T11:32:21;13.53;;;4.30;;
15799;SDS011;8002;51.196;7.010;2023-11-19T11:34:58;19.67;;;4.63;;
15799;SDS011;8002;51.196;7.010;2023-11-19T11:37:30;17.57;;;3.93;;
15799;SDS011;8002;51.196;7.010;2023-11-19T11:39:58;20.67;;;4.63;;
15799;SDS011;8002;51.196;7.010;2023-11-19T11:42:34;20.50;;;5.30;;
15799;SDS011;8002;51.196;7.010;2023-11-19T11:45:01;19.17;;;4.17;;
15799;SDS011;8002;51.196;7.010;2023-11-19T11:50:17;16.80;;;4.73;;
15799;SDS011;8002;51.196;7.010;2023-11-19T11:55:28;19.87;;;4.67;;
15799;SDS011;8002;51.196;7.010;2023-11-19T11:57:54;16.50;;;3.70;;
15799;SDS011;8002;51.196;7.010;2023-11-19T12:00:21;12.90;;;4.07;;
15799;SDS011;8002;51.196;7.010;2023-11-19T12:02:48;12.87;;;4.10;;
15799;SDS011;8002;51.196;7.010;2023-11-19T12:05:16;12.80;;;3.40;;
15799;SDS011;8002;51.196;7.010;2023-11-19T12:07:44;14.03;;;3.87;;
15799;SDS011;8002;51.196;7.010;2023-11-19T12:10:20;16.43;;;4.50;;
15799;SDS011;8002;51.196;7.010;2023-11-19T12:12:47;11.87;;;3.43;;
15799;SDS011;8002;51.196;7.010;2023-11-19T12:15:13;9.90;;;3.37;;
15799;SDS011;8002;51.196;7.010;2023-11-19T12:17:41;12.10;;;3.77;;
15799;SDS011;8002;51.196;7.010;2023-11-19T12:20:09;9.97;;;2.80;;
15799;SDS011;8002;51.196;7.010;2023-11-19T12:22:37;14.27;;;4.43;;
15799;SDS011;8002;51.196;7.010;2023-11-19T12:25:04;10.43;;;3.40;;
15799;SDS011;8002;51.196;7.010;2023-11-19T12:27:31;12.37;;;3.43;;
15799;SDS011;8002;51.196;7.010;2023-11-19T12:29:58;11.17;;;2.77;;
15799;SDS011;8002;51.196;7.010;2023-11-19T12:32:26;9.87;;;3.07;;
15799;SDS011;8002;51.196;7.010;2023-11-19T12:34:52;16.67;;;3.67;;
15799;SDS011;8002;51.196;7.010;2023-11-19T12:37:20;9.90;;;3.83;;
15799;SDS011;8002;51.196;7.010;2023-11-19T12:39:48;11.00;;;3.83;;
15799;SDS011;8002;51.196;7.010;2023-11-19T12:42:14;9.87;;;2.80;;
15799;SDS011;8002;51.196;7.010;2023-11-19T12:44:53;14.33;;;4.00;;
15799;SDS011;8002;51.196;7.010;2023-11-19T12:47:19;18.77;;;5.13;;
15799;SDS011;8002;51.196;7.010;2023-11-19T12:49:54;9.00;;;3.17;;
15799;SDS011;8002;51.196;7.010;2023-11-19T12:52:21;14.63;;;3.60;;
15799;SDS011;8002;51.196;7.010;2023-11-19T12:54:49;10.17;;;3.20;;
15799;SDS011;8002;51.196;7.010;2023-11-19T12:57:16;10.20;;;3.17;;
15799;SDS011;8002;51.196;7.010;2023-11-19T12:59:54;11.43;;;4.47;;
15799;SDS011;8002;51.196;7.010;2023-11-19T13:02:20;15.23;;;4.20;;
15799;SDS011;8002;51.196;7.010;2023-11-19T13:04:47;11.57;;;3.43;;
15799;SDS011;8002;51.196;7.010;2023-11-19T13:07:13;11.30;;;3.70;;
15799;SDS011;8002;51.196;7.010;2023-11-19T13:09:39;11.20;;;3.60;;
15799;SDS011;8002;51.196;7.010;2023-11-19T13:12:16;10.60;;;3.30;;
15799;SDS011;8002;51.196;7.010;2023-11-19T13:14:43;9.10;;;3.67;;
15799;SDS011;8002;51.196;7.010;2023-11-19T13:17:12;14.37;;;3.37;;
15799;SDS011;8002;51.196;7.010;2023-11-19T13:19:39;12.03;;;3.63;;
15799;SDS011;8002;51.196;7.010;2023-11-19T13:22:05;10.67;;;2.53;;
15799;SDS011;8002;51.196;7.010;2023-11-19T13:24:31;14.27;;;3.53;;
15799;SDS011;8002;51.196;7.010;2023-11-19T13:26:58;14.83;;;3.17;;
15799;SDS011;8002;51.196;7.010;2023-11-19T13:29:26;9.20;;;3.10;;
15799;SDS011;8002;51.196;7.010;2023-11-19T13:31:52;13.63;;;3.40;;
15799;SDS011;8002;51.196;7.010;2023-11-19T13:34:18;8.33;;;2.47;;
15799;SDS011;8002;51.196;7.010;2023-11-19T13:36:45;7.87;;;2.53;;
15799;SDS011;8002;51.196;7.010;2023-11-19T13:39:11;9.37;;;2.40;;
15799;SDS011;8002;51.196;7.010;2023-11-19T13:41:38;10.37;;;3.33;;
15799;SDS011;8002;51.196;7.010;2023-11-19T13:44:05;14.97;;;3.53;;
15799;SDS011;8002;51.196;7.010;2023-11-19T13:46:33;8.53;;;3.63;;
15799;SDS011;8002;51.196;7.010;2023-11-19T13:48:59;10.57;;;3.27;;
15799;SDS011;8002;51.196;7.010;2023-11-19T13:51:25;12.10;;;3.63;;
15799;SDS011;8002;51.196;7.010;2023-11-19T13:53:52;10.37;;;2.43;;
15799;SDS011;8002;51.196;7.010;2023-11-19T13:56:19;10.60;;;2.47;;
15799;SDS011;8002;51.196;7.010;2023-11-19T13:58:45;10.47;;;3.33;;
15799;SDS011;8002;51.196;7.010;2023-11-19T14:01:12;12.67;;;3.00;;
15799;SDS011;8002;51.196;7.010;2023-11-19T14:03:41;13.40;;;3.17;;
15799;SDS011;8002;51.196;7.010;2023-11-19T14:06:07;11.33;;;2.60;;
15799;SDS011;8002;51.196;7.010;2023-11-19T14:08:34;11.43;;;3.40;;
15799;SDS011;8002;51.196;7.010;2023-11-19T14:11:00;10.03;;;3.20;;
15799;SDS011;8002;51.196;7.010;2023-11-19T14:13:27;13.27;;;3.17;;
15799;SDS011;8002;51.196;7.010;2023-11-19T14:15:53;8.00;;;3.00;;
15799;SDS011;8002;51.196;7.010;2023-11-19T14:18:18;14.77;;;3.70;;
15799;SDS011;8002;51.196;7.010;2023-11-19T14:20:46;15.40;;;3.60;;
15799;SDS011;8002;51.196;7.010;2023-11-19T14:23:12;17.23;;;3.73;;
15799;SDS011;8002;51.196;7.010;2023-11-19T14:25:39;13.27;;;3.30;;
15799;SDS011;8002;51.196;7.010;2023-11-19T14:28:05;12.47;;;4.67;;
15799;SDS011;8002;51.196;7.010;2023-11-19T14:30:33;16.50;;;4.33;;
15799;SDS011;8002;51.196;7.010;2023-11-19T14:32:59;13.43;;;3.80;;
15799;SDS011;8002;51.196;7.010;2023-11-19T14:35:26;12.20;;;3.63;;
15799;SDS011;8002;51.196;7.010;2023-11-19T14:37:53;10.83;;;3.93;;
15799;SDS011;8002;51.196;7.010;2023-11-19T14:40:20;13.60;;;4.00;;
15799;SDS011;8002;51.196;7.010;2023-11-19T14:42:46;11.73;;;3.50;;
15799;SDS011;8002;51.196;7.010;2023-11-19T14:45:13;14.17;;;3.87;;
15799;SDS011;8002;51.196;7.010;2023-11-19T14:47:39;16.97;;;3.30;;
15799;SDS011;8002;51.196;7.010;2023-11-19T14:50:06;14.53;;;4.87;;
15799;SDS011;8002;51.196;7.010;2023-11-19T14:52:34;13.27;;;3.87;;
15799;SDS011;8002;51.196;7.010;2023-11-19T14:55:02;14.17;;;3.50;;
15799;SDS011;8002;51.196;7.010;2023-11-19T14:57:29;14.73;;;3.87;;
15799;SDS011;8002;51.196;7.010;2023-11-19T14:59:55;13.03;;;4.50;;
15799;SDS011;8002;51.196;7.010;2023-11-19T15:02:22;14.80;;;3.80;;
15799;SDS011;8002;51.196;7.010;2023-11-19T15:04:48;13.23;;;3.70;;